createdAt,value
2018-09-08T00:00:18.095Z,993.18
2018-09-08T00:01:18.023Z,993.17
2018-09-08T00:02:17.951Z,993.13
2018-09-08T00:03:17.879Z,993.16
2018-09-08T00:04:17.804Z,993.18
2018-09-08T00:05:17.733Z,993.15
2018-09-08T00:06:17.662Z,993.17
2018-09-08T00:07:17.587Z,993.18
2018-09-08T00:08:17.512Z,993.19
2018-09-08T00:09:17.440Z,993.17
2018-09-08T00:10:17.367Z,993.20
2018-09-08T00:11:17.294Z,993.22
2018-09-08T00:12:17.222Z,993.25
2018-09-08T00:13:17.147Z,993.23
2018-09-08T00:14:17.075Z,993.20
2018-09-08T00:15:17.003Z,993.26
2018-09-08T00:16:16.928Z,993.21
2018-09-08T00:17:16.858Z,993.22
2018-09-08T00:18:16.782Z,993.22
2018-09-08T00:19:16.711Z,993.23
2018-09-08T00:20:16.639Z,993.23
2018-09-08T00:21:16.565Z,993.23
2018-09-08T00:22:16.490Z,993.21
2018-09-08T00:23:16.421Z,993.18
2018-09-08T00:24:16.344Z,993.22
2018-09-08T00:25:16.272Z,993.23
2018-09-08T00:26:16.200Z,993.24
2018-09-08T00:27:16.127Z,993.23
2018-09-08T00:28:16.052Z,993.24
2018-09-08T00:29:15.980Z,993.23
2018-09-08T00:30:15.907Z,993.24
2018-09-08T00:31:15.834Z,993.22
2018-09-08T00:32:15.760Z,993.25
2018-09-08T00:33:15.689Z,993.26
2018-09-08T00:34:15.615Z,993.28
2018-09-08T00:35:15.543Z,993.28
2018-09-08T00:36:15.470Z,993.29
2018-09-08T00:37:15.396Z,993.29
2018-09-08T00:38:15.324Z,993.32
2018-09-08T00:39:15.251Z,993.32
2018-09-08T00:40:15.177Z,993.30
2018-09-08T00:41:15.107Z,993.31
2018-09-08T00:42:15.034Z,993.32
2018-09-08T00:43:14.960Z,993.35
2018-09-08T00:44:14.885Z,993.36
2018-09-08T00:45:14.813Z,993.35
2018-09-08T00:46:14.741Z,993.37
2018-09-08T00:47:14.667Z,993.37
2018-09-08T00:48:14.594Z,993.39
2018-09-08T00:49:14.521Z,993.43
2018-09-08T00:50:14.448Z,993.43
2018-09-08T00:51:14.376Z,993.44
2018-09-08T00:52:14.301Z,993.44
2018-09-08T00:53:14.231Z,993.49
2018-09-08T00:54:14.157Z,993.47
2018-09-08T00:55:14.083Z,993.47
2018-09-08T00:56:14.013Z,993.47
2018-09-08T00:57:13.934Z,993.39
2018-09-08T00:58:13.863Z,993.45
2018-09-08T00:59:13.790Z,993.43
2018-09-08T01:00:13.716Z,993.42
2018-09-08T01:01:13.646Z,993.44
2018-09-08T01:02:13.570Z,993.37
2018-09-08T01:03:13.499Z,993.40
2018-09-08T01:04:13.422Z,993.39
2018-09-08T01:05:13.350Z,993.38
2018-09-08T01:06:13.276Z,993.39
2018-09-08T01:07:13.203Z,993.42
2018-09-08T01:08:13.129Z,993.40
2018-09-08T01:09:13.055Z,993.41
2018-09-08T01:10:12.982Z,993.40
2018-09-08T01:11:12.909Z,993.39
2018-09-08T01:12:12.837Z,993.41
2018-09-08T01:13:12.761Z,993.42
2018-09-08T01:14:12.688Z,993.45
2018-09-08T01:15:12.615Z,993.48
2018-09-08T01:16:12.541Z,993.48
2018-09-08T01:17:12.466Z,993.49
2018-09-08T01:18:12.393Z,993.46
2018-09-08T01:19:12.320Z,993.48
2018-09-08T01:20:12.246Z,993.50
2018-09-08T01:21:12.172Z,993.46
2018-09-08T01:22:12.099Z,993.49
2018-09-08T01:23:12.025Z,993.48
2018-09-08T01:24:11.952Z,993.48
2018-09-08T01:25:11.877Z,993.50
2018-09-08T01:26:11.804Z,993.51
2018-09-08T01:27:11.731Z,993.54
2018-09-08T01:28:11.656Z,993.53
2018-09-08T01:29:11.583Z,993.57
2018-09-08T01:30:11.510Z,993.53
2018-09-08T01:31:11.440Z,993.57
2018-09-08T01:32:11.362Z,993.60
2018-09-08T01:33:11.288Z,993.57
2018-09-08T01:34:11.213Z,993.58
2018-09-08T01:35:11.141Z,993.60
2018-09-08T01:36:11.068Z,993.58
2018-09-08T01:37:10.993Z,993.59
2018-09-08T01:38:10.918Z,993.60
2018-09-08T01:39:10.849Z,993.60
2018-09-08T01:40:10.771Z,993.58
2018-09-08T01:41:10.698Z,993.54
2018-09-08T01:42:10.624Z,993.54
2018-09-08T01:43:10.551Z,993.55
2018-09-08T01:44:10.476Z,993.55
2018-09-08T01:45:10.402Z,993.60
2018-09-08T01:46:10.328Z,993.60
2018-09-08T01:47:10.254Z,993.60
2018-09-08T01:48:10.181Z,993.63
2018-09-08T01:49:10.106Z,993.62
2018-09-08T01:50:10.033Z,993.67
2018-09-08T01:51:09.959Z,993.68
2018-09-08T01:52:09.884Z,993.67
2018-09-08T01:53:09.810Z,993.69
2018-09-08T01:54:09.737Z,993.69
2018-09-08T01:55:09.665Z,993.70
2018-09-08T01:56:09.595Z,993.76
2018-09-08T01:57:09.514Z,993.74
2018-09-08T01:58:09.441Z,993.71
2018-09-08T01:59:09.368Z,993.70
2018-09-08T02:00:09.296Z,993.69
2018-09-08T02:01:09.216Z,993.73
2018-09-08T02:02:09.144Z,993.66
2018-09-08T02:03:09.072Z,993.70
2018-09-08T02:04:08.995Z,993.72
2018-09-08T02:05:08.921Z,993.73
2018-09-08T02:06:08.847Z,993.78
2018-09-08T02:07:08.775Z,993.77
2018-09-08T02:08:08.698Z,993.80
2018-09-08T02:09:08.624Z,993.78
2018-09-08T02:10:08.551Z,993.77
2018-09-08T02:11:08.477Z,993.79
2018-09-08T02:12:08.402Z,993.78
2018-09-08T02:13:08.327Z,993.78
2018-09-08T02:14:08.254Z,993.79
2018-09-08T02:15:08.179Z,993.80
2018-09-08T02:16:08.103Z,993.81
2018-09-08T02:17:08.029Z,993.77
2018-09-08T02:18:07.957Z,993.77
2018-09-08T02:19:07.881Z,993.75
2018-09-08T02:20:07.805Z,993.78
2018-09-08T02:21:07.731Z,993.74
2018-09-08T02:22:07.656Z,993.79
2018-09-08T02:23:07.582Z,993.79
2018-09-08T02:24:07.509Z,993.78
2018-09-08T02:25:07.432Z,993.80
2018-09-08T02:26:07.363Z,993.80
2018-09-08T02:27:07.285Z,993.81
2018-09-08T02:28:07.216Z,993.82
2018-09-08T02:29:07.168Z,993.84
2018-09-08T02:30:07.060Z,993.89
2018-09-08T02:31:06.986Z,993.91
2018-09-08T02:32:06.912Z,993.91
2018-09-08T02:33:06.835Z,993.90
2018-09-08T02:34:06.760Z,993.86
2018-09-08T02:35:06.686Z,993.88
2018-09-08T02:36:06.611Z,993.90
2018-09-08T02:37:06.536Z,993.90
2018-09-08T02:38:06.464Z,993.88
2018-09-08T02:39:06.386Z,993.85
2018-09-08T02:40:06.310Z,993.86
2018-09-08T02:41:06.236Z,993.88
2018-09-08T02:42:06.166Z,993.87
2018-09-08T02:43:06.087Z,993.84
2018-09-08T02:44:06.011Z,993.84
2018-09-08T02:45:05.936Z,993.79
2018-09-08T02:46:05.862Z,993.83
2018-09-08T02:47:05.787Z,993.79
2018-09-08T02:48:05.725Z,993.79
2018-09-08T02:49:05.640Z,993.78
2018-09-08T02:50:05.561Z,993.79
2018-09-08T02:51:05.486Z,993.79
2018-09-08T02:52:05.411Z,993.79
2018-09-08T02:53:05.335Z,993.76
2018-09-08T02:54:05.263Z,993.77
2018-09-08T02:55:05.187Z,993.72
2018-09-08T02:56:05.110Z,993.73
2018-09-08T02:57:05.036Z,993.75
2018-09-08T02:58:04.961Z,993.77
2018-09-08T02:59:04.884Z,993.75
2018-09-08T03:00:04.809Z,993.77
2018-09-08T03:01:04.735Z,993.78
2018-09-08T03:02:04.658Z,993.80
2018-09-08T03:03:04.584Z,993.78
2018-09-08T03:04:04.506Z,993.78
2018-09-08T03:05:04.433Z,993.77
2018-09-08T03:06:04.357Z,993.80
2018-09-08T03:07:04.283Z,993.75
2018-09-08T03:08:04.206Z,993.77
2018-09-08T03:09:04.132Z,993.79
2018-09-08T03:10:04.056Z,993.76
2018-09-08T03:11:03.981Z,993.78
2018-09-08T03:12:03.905Z,993.81
2018-09-08T03:13:03.829Z,993.80
2018-09-08T03:14:03.754Z,993.84
2018-09-08T03:15:03.679Z,993.83
2018-09-08T03:16:03.604Z,993.85
2018-09-08T03:17:03.523Z,993.85
2018-09-08T03:18:03.446Z,993.86
2018-09-08T03:19:03.370Z,993.86
2018-09-08T03:20:03.291Z,993.85
2018-09-08T03:21:03.215Z,993.84
2018-09-08T03:22:03.138Z,993.84
2018-09-08T03:23:03.062Z,993.89
2018-09-08T03:24:02.984Z,993.86
2018-09-08T03:25:02.906Z,993.89
2018-09-08T03:26:02.831Z,993.90
2018-09-08T03:27:02.753Z,993.90
2018-09-08T03:28:02.674Z,993.91
2018-09-08T03:29:02.597Z,993.90
2018-09-08T03:30:02.519Z,993.87
2018-09-08T03:31:02.441Z,993.90
2018-09-08T03:32:02.380Z,993.87
2018-09-08T03:33:02.287Z,993.90
2018-09-08T03:34:02.208Z,993.89
2018-09-08T03:35:02.138Z,993.90
2018-09-08T03:36:02.053Z,993.88
2018-09-08T03:37:01.978Z,993.90
2018-09-08T03:38:01.897Z,993.88
2018-09-08T03:39:01.819Z,993.93
2018-09-08T03:40:01.744Z,993.91
2018-09-08T03:41:01.661Z,993.89
2018-09-08T03:42:01.587Z,993.87
2018-09-08T03:43:01.507Z,993.86
2018-09-08T03:44:01.429Z,993.88
2018-09-08T03:45:01.351Z,993.86
2018-09-08T03:46:01.273Z,993.84
2018-09-08T03:47:01.195Z,993.89
2018-09-08T03:48:01.115Z,993.91
2018-09-08T03:49:01.038Z,993.89
2018-09-08T03:50:00.967Z,993.89
2018-09-08T03:51:00.881Z,993.91
2018-09-08T03:52:00.806Z,993.86
2018-09-08T03:53:00.730Z,993.82
2018-09-08T03:54:00.647Z,993.87
2018-09-08T03:55:00.568Z,993.87
2018-09-08T03:56:00.489Z,993.84
2018-09-08T03:57:00.411Z,993.85
2018-09-08T03:58:00.333Z,993.86
2018-09-08T03:59:00.275Z,993.82
2018-09-08T04:00:00.176Z,993.83
2018-09-08T04:01:00.098Z,993.84
2018-09-08T04:02:00.018Z,993.86
2018-09-08T04:02:59.942Z,993.88
2018-09-08T04:03:59.860Z,993.85
2018-09-08T04:04:59.783Z,993.88
2018-09-08T04:05:59.706Z,993.89
2018-09-08T04:06:59.625Z,993.90
2018-09-08T04:07:59.546Z,993.87
2018-09-08T04:08:59.468Z,993.92
2018-09-08T04:09:59.390Z,993.94
2018-09-08T04:10:59.311Z,993.95
2018-09-08T04:11:59.231Z,993.93
2018-09-08T04:12:59.153Z,993.90
2018-09-08T04:13:59.075Z,993.93
2018-09-08T04:14:58.996Z,993.91
2018-09-08T04:15:58.919Z,993.94
2018-09-08T04:16:58.837Z,993.91
2018-09-08T04:17:58.784Z,993.91
2018-09-08T04:18:58.679Z,993.92
2018-09-08T04:19:58.750Z,993.91
2018-09-08T04:20:58.529Z,993.94
2018-09-08T04:21:58.443Z,993.95
2018-09-08T04:22:58.365Z,993.92
2018-09-08T04:23:58.306Z,993.97
2018-09-08T04:24:58.205Z,993.98
2018-09-08T04:25:58.127Z,994.00
2018-09-08T04:26:58.049Z,994.00
2018-09-08T04:27:57.969Z,993.99
2018-09-08T04:28:57.890Z,994.01
2018-09-08T04:29:57.811Z,994.03
2018-09-08T04:30:57.732Z,994.00
2018-09-08T04:31:57.653Z,994.00
2018-09-08T04:32:57.575Z,994.02
2018-09-08T04:33:57.495Z,994.00
2018-09-08T04:34:57.417Z,994.00
2018-09-08T04:35:57.336Z,994.07
2018-09-08T04:36:57.259Z,994.07
2018-09-08T04:37:57.179Z,994.06
2018-09-08T04:38:57.100Z,994.09
2018-09-08T04:39:57.019Z,994.07
2018-09-08T04:40:56.963Z,994.12
2018-09-08T04:41:56.861Z,994.12
2018-09-08T04:42:56.784Z,994.15
2018-09-08T04:43:56.702Z,994.12
2018-09-08T04:44:56.623Z,994.14
2018-09-08T04:45:56.548Z,994.12
2018-09-08T04:46:56.465Z,994.15
2018-09-08T04:47:56.384Z,994.20
2018-09-08T04:48:56.306Z,994.25
2018-09-08T04:49:56.226Z,994.19
2018-09-08T04:50:56.153Z,994.21
2018-09-08T04:51:56.067Z,994.22
2018-09-08T04:52:55.990Z,994.25
2018-09-08T04:53:55.909Z,994.28
2018-09-08T04:54:55.829Z,994.26
2018-09-08T04:55:55.750Z,994.31
2018-09-08T04:56:55.671Z,994.27
2018-09-08T04:57:55.595Z,994.33
2018-09-08T04:58:55.519Z,994.34
2018-09-08T04:59:55.438Z,994.34
2018-09-08T05:00:55.354Z,994.34
2018-09-08T05:01:55.275Z,994.32
2018-09-08T05:02:55.196Z,994.33
2018-09-08T05:03:55.118Z,994.30
2018-09-08T05:04:55.035Z,994.32
2018-09-08T05:05:54.956Z,994.32
2018-09-08T05:06:54.877Z,994.34
2018-09-08T05:07:54.798Z,994.35
2018-09-08T05:08:54.725Z,994.35
2018-09-08T05:09:54.638Z,994.37
2018-09-08T05:10:54.559Z,994.36
2018-09-08T05:11:54.479Z,994.37
2018-09-08T05:12:54.399Z,994.39
2018-09-08T05:13:54.325Z,994.39
2018-09-08T05:14:54.242Z,994.42
2018-09-08T05:15:54.160Z,994.41
2018-09-08T05:16:54.085Z,994.43
2018-09-08T05:17:54.002Z,994.41
2018-09-08T05:18:53.924Z,994.42
2018-09-08T05:19:53.843Z,994.41
2018-09-08T05:20:53.767Z,994.43
2018-09-08T05:21:53.684Z,994.41
2018-09-08T05:22:53.606Z,994.43
2018-09-08T05:23:53.525Z,994.46
2018-09-08T05:24:53.445Z,994.46
2018-09-08T05:25:53.365Z,994.46
2018-09-08T05:26:53.286Z,994.44
2018-09-08T05:27:53.206Z,994.44
2018-09-08T05:28:53.126Z,994.45
2018-09-08T05:29:53.049Z,994.47
2018-09-08T05:30:52.968Z,994.51
2018-09-08T05:31:52.890Z,994.48
2018-09-08T05:32:52.812Z,994.49
2018-09-08T05:33:52.729Z,994.49
2018-09-08T05:34:52.681Z,994.52
2018-09-08T05:35:52.570Z,994.48
2018-09-08T05:36:52.491Z,994.49
2018-09-08T05:37:52.413Z,994.53
2018-09-08T05:38:52.331Z,994.58
2018-09-08T05:39:52.253Z,994.55
2018-09-08T05:40:52.173Z,994.56
2018-09-08T05:41:52.093Z,994.58
2018-09-08T05:42:52.023Z,994.55
2018-09-08T05:43:51.933Z,994.60
2018-09-08T05:44:51.852Z,994.57
2018-09-08T05:45:51.776Z,994.63
2018-09-08T05:46:51.696Z,994.60
2018-09-08T05:47:51.614Z,994.64
2018-09-08T05:48:51.559Z,994.61
2018-09-08T05:49:51.457Z,994.64
2018-09-08T05:50:51.376Z,994.65
2018-09-08T05:51:51.296Z,994.66
2018-09-08T05:52:51.217Z,994.67
2018-09-08T05:53:51.137Z,994.69
2018-09-08T05:54:51.059Z,994.69
2018-09-08T05:55:50.980Z,994.72
2018-09-08T05:56:50.900Z,994.72
2018-09-08T05:57:50.820Z,994.72
2018-09-08T05:58:50.744Z,994.72
2018-09-08T05:59:50.661Z,994.72
2018-09-08T06:00:50.581Z,994.79
2018-09-08T06:01:50.502Z,994.78
2018-09-08T06:02:50.426Z,994.77
2018-09-08T06:03:50.345Z,994.80
2018-09-08T06:04:50.265Z,994.79
2018-09-08T06:05:50.185Z,994.77
2018-09-08T06:06:50.106Z,994.81
2018-09-08T06:07:50.026Z,994.81
2018-09-08T06:08:49.946Z,994.82
2018-09-08T06:09:49.868Z,994.82
2018-09-08T06:10:49.789Z,994.85
2018-09-08T06:11:49.709Z,994.88
2018-09-08T06:12:49.631Z,994.88
2018-09-08T06:13:49.552Z,994.87
2018-09-08T06:14:49.472Z,994.87
2018-09-08T06:15:49.392Z,994.84
2018-09-08T06:16:49.314Z,994.86
2018-09-08T06:17:49.238Z,994.92
2018-09-08T06:18:49.156Z,994.89
2018-09-08T06:19:49.077Z,994.87
2018-09-08T06:20:48.998Z,994.85
2018-09-08T06:21:48.923Z,994.89
2018-09-08T06:22:48.842Z,994.88
2018-09-08T06:23:48.761Z,994.88
2018-09-08T06:24:48.682Z,994.93
2018-09-08T06:25:48.604Z,994.93
2018-09-08T06:26:48.526Z,994.89
2018-09-08T06:27:48.448Z,994.89
2018-09-08T06:28:48.394Z,994.93
2018-09-08T06:29:48.289Z,994.89
2018-09-08T06:30:48.215Z,994.93
2018-09-08T06:31:48.183Z,994.89
2018-09-08T06:32:48.053Z,994.89
2018-09-08T06:33:48.027Z,994.86
2018-09-08T06:34:47.899Z,994.89
2018-09-08T06:35:47.843Z,994.88
2018-09-08T06:36:47.740Z,994.90
2018-09-08T06:37:47.661Z,994.87
2018-09-08T06:38:47.585Z,994.88
2018-09-08T06:39:47.510Z,994.89
2018-09-08T06:40:47.428Z,994.90
2018-09-08T06:41:47.350Z,994.94
2018-09-08T06:42:47.273Z,994.93
2018-09-08T06:43:47.197Z,994.93
2018-09-08T06:44:47.208Z,994.96
2018-09-08T06:45:47.039Z,994.95
2018-09-08T06:46:46.960Z,994.97
2018-09-08T06:47:46.882Z,994.97
2018-09-08T06:48:46.804Z,994.96
2018-09-08T06:49:46.729Z,994.97
2018-09-08T06:50:46.649Z,995.01
2018-09-08T06:51:46.571Z,995.00
2018-09-08T06:52:46.494Z,995.00
2018-09-08T06:53:46.421Z,994.98
2018-09-08T06:54:46.338Z,994.98
2018-09-08T06:55:46.262Z,994.98
2018-09-08T06:56:46.184Z,995.01
2018-09-08T06:57:46.156Z,995.00
2018-09-08T06:58:46.030Z,995.00
2018-09-08T06:59:45.951Z,994.97
2018-09-08T07:00:45.875Z,994.99
2018-09-08T07:01:45.798Z,994.98
2018-09-08T07:02:45.719Z,994.98
2018-09-08T07:03:45.643Z,994.99
2018-09-08T07:04:45.566Z,994.98
2018-09-08T07:05:45.487Z,995.02
2018-09-08T07:06:45.411Z,995.03
2018-09-08T07:07:45.333Z,995.01
2018-09-08T07:08:45.257Z,995.03
2018-09-08T07:09:45.179Z,995.03
2018-09-08T07:10:45.102Z,995.01
2018-09-08T07:11:45.026Z,995.03
2018-09-08T07:12:44.948Z,995.04
2018-09-08T07:13:44.871Z,995.06
2018-09-08T07:14:44.798Z,995.07
2018-09-08T07:15:44.718Z,995.10
2018-09-08T07:16:44.641Z,995.12
2018-09-08T07:17:44.564Z,995.13
2018-09-08T07:18:44.489Z,995.12
2018-09-08T07:19:44.410Z,995.09
2018-09-08T07:20:44.334Z,995.10
2018-09-08T07:21:44.258Z,995.13
2018-09-08T07:22:44.184Z,995.12
2018-09-08T07:23:44.108Z,995.16
2018-09-08T07:24:44.060Z,995.12
2018-09-08T07:25:43.954Z,995.10
2018-09-08T07:26:43.880Z,995.09
2018-09-08T07:27:43.799Z,995.12
2018-09-08T07:28:43.724Z,995.14
2018-09-08T07:29:43.647Z,995.18
2018-09-08T07:30:43.571Z,995.17
2018-09-08T07:31:43.495Z,995.15
2018-09-08T07:32:43.428Z,995.12
2018-09-08T07:33:43.344Z,995.16
2018-09-08T07:34:43.267Z,995.19
2018-09-08T07:35:43.192Z,995.16
2018-09-08T07:36:43.114Z,995.20
2018-09-08T07:37:43.039Z,995.19
2018-09-08T07:38:42.963Z,995.19
2018-09-08T07:39:42.887Z,995.24
2018-09-08T07:40:42.813Z,995.21
2018-09-08T07:41:42.737Z,995.27
2018-09-08T07:42:42.661Z,995.24
2018-09-08T07:43:42.586Z,995.25
2018-09-08T07:44:42.508Z,995.21
2018-09-08T07:45:42.436Z,995.21
2018-09-08T07:46:42.358Z,995.20
2018-09-08T07:47:42.283Z,995.20
2018-09-08T07:48:42.207Z,995.21
2018-09-08T07:49:42.133Z,995.21
2018-09-08T07:50:42.057Z,995.23
2018-09-08T07:51:41.981Z,995.22
2018-09-08T07:52:41.909Z,995.25
2018-09-08T07:53:41.847Z,995.24
2018-09-08T07:54:41.754Z,995.26
2018-09-08T07:55:41.680Z,995.28
2018-09-08T07:56:41.603Z,995.28
2018-09-08T07:57:41.531Z,995.32
2018-09-08T07:58:41.454Z,995.32
2018-09-08T07:59:41.380Z,995.36
2018-09-08T08:00:41.303Z,995.36
2018-09-08T08:01:41.231Z,995.37
2018-09-08T08:02:41.153Z,995.40
2018-09-08T08:03:41.127Z,995.39
2018-09-08T08:04:41.003Z,995.42
2018-09-08T08:05:40.928Z,995.42
2018-09-08T08:06:40.875Z,995.41
2018-09-08T08:07:40.777Z,995.42
2018-09-08T08:08:40.703Z,995.42
2018-09-08T08:09:40.628Z,995.40
2018-09-08T08:10:40.553Z,995.37
2018-09-08T08:11:40.477Z,995.36
2018-09-08T08:12:40.404Z,995.34
2018-09-08T08:13:40.328Z,995.35
2018-09-08T08:14:40.360Z,995.36
2018-09-08T08:15:40.178Z,995.38
2018-09-08T08:16:40.107Z,995.39
2018-09-08T08:17:40.030Z,995.41
2018-09-08T08:18:39.956Z,995.44
2018-09-08T08:19:39.879Z,995.42
2018-09-08T08:20:39.806Z,995.42
2018-09-08T08:21:39.732Z,995.43
2018-09-08T08:22:39.656Z,995.43
2018-09-08T08:23:39.582Z,995.40
2018-09-08T08:24:39.507Z,995.44
2018-09-08T08:25:39.432Z,995.41
2018-09-08T08:26:39.358Z,995.39
2018-09-08T08:27:39.283Z,995.41
2018-09-08T08:28:39.210Z,995.41
2018-09-08T08:29:39.135Z,995.40
2018-09-08T08:30:39.061Z,995.39
2018-09-08T08:31:38.989Z,995.41
2018-09-08T08:32:38.911Z,995.45
2018-09-08T08:33:38.837Z,995.45
2018-09-08T08:34:38.762Z,995.43
2018-09-08T08:35:38.688Z,995.45
2018-09-08T08:36:38.613Z,995.44
2018-09-08T08:37:38.541Z,995.47
2018-09-08T08:38:38.467Z,995.46
2018-09-08T08:39:38.391Z,995.44
2018-09-08T08:40:38.317Z,995.51
2018-09-08T08:41:38.242Z,995.48
2018-09-08T08:42:38.168Z,995.47
2018-09-08T08:43:38.093Z,995.46
2018-09-08T08:44:38.019Z,995.45
2018-09-08T08:45:37.947Z,995.46
2018-09-08T08:46:37.870Z,995.44
2018-09-08T08:47:37.796Z,995.41
2018-09-08T08:48:37.722Z,995.38
2018-09-08T08:49:37.674Z,995.39
2018-09-08T08:50:37.573Z,995.43
2018-09-08T08:51:37.502Z,995.42
2018-09-08T08:52:37.425Z,995.46
2018-09-08T08:53:37.349Z,995.49
2018-09-08T08:54:37.277Z,995.45
2018-09-08T08:55:37.231Z,995.39
2018-09-08T08:56:37.127Z,995.44
2018-09-08T08:57:37.052Z,995.43
2018-09-08T08:58:36.978Z,995.41
2018-09-08T08:59:36.903Z,995.41
2018-09-08T09:00:36.829Z,995.40
2018-09-08T09:01:36.762Z,995.43
2018-09-08T09:02:36.681Z,995.39
2018-09-08T09:03:36.607Z,995.38
2018-09-08T09:04:36.533Z,995.37
2018-09-08T09:05:36.459Z,995.41
2018-09-08T09:06:36.385Z,995.34
2018-09-08T09:07:36.396Z,995.37
2018-09-08T09:08:36.661Z,995.35
2018-09-08T09:09:36.162Z,995.34
2018-09-08T09:10:36.087Z,995.36
2018-09-08T09:11:36.378Z,995.38
2018-09-08T09:12:36.276Z,995.35
2018-09-08T09:13:36.006Z,995.32
2018-09-08T09:14:36.139Z,995.36
2018-09-08T09:15:36.237Z,995.36
2018-09-08T09:16:35.643Z,995.32
2018-09-08T09:17:35.571Z,995.36
2018-09-08T09:18:35.909Z,995.40
2018-09-08T09:19:35.420Z,995.34
2018-09-08T09:20:35.347Z,995.42
2018-09-08T09:21:35.273Z,995.40
2018-09-08T09:22:35.199Z,995.40
2018-09-08T09:23:35.125Z,995.35
2018-09-08T09:24:35.339Z,995.33
2018-09-08T09:25:34.979Z,995.38
2018-09-08T09:26:34.903Z,995.37
2018-09-08T09:27:34.828Z,995.38
2018-09-08T09:28:34.754Z,995.38
2018-09-08T09:29:34.684Z,995.45
2018-09-08T09:30:34.608Z,995.42
2018-09-08T09:31:34.532Z,995.46
2018-09-08T09:32:34.459Z,995.40
2018-09-08T09:33:34.385Z,995.36
2018-09-08T09:34:34.311Z,995.33
2018-09-08T09:35:34.236Z,995.34
2018-09-08T09:36:34.162Z,995.30
2018-09-08T09:37:34.089Z,995.27
2018-09-08T09:38:34.016Z,995.25
2018-09-08T09:39:33.941Z,995.21
2018-09-08T09:40:33.867Z,995.25
2018-09-08T09:41:33.792Z,995.26
2018-09-08T09:42:33.718Z,995.24
2018-09-08T09:43:33.645Z,995.21
2018-09-08T09:44:33.570Z,995.19
2018-09-08T09:45:33.497Z,995.19
2018-09-08T09:46:33.423Z,995.21
2018-09-08T09:47:33.350Z,995.20
2018-09-08T09:48:33.278Z,995.19
2018-09-08T09:49:33.203Z,995.18
2018-09-08T09:50:33.130Z,995.21
2018-09-08T09:51:33.055Z,995.23
2018-09-08T09:52:32.983Z,995.22
2018-09-08T09:53:32.909Z,995.23
2018-09-08T09:54:32.839Z,995.22
2018-09-08T09:55:32.760Z,995.24
2018-09-08T09:56:32.688Z,995.20
2018-09-08T09:57:32.615Z,995.24
2018-09-08T09:58:32.539Z,995.20
2018-09-08T09:59:32.465Z,995.19
2018-09-08T10:00:32.392Z,995.14
2018-09-08T10:01:32.319Z,995.14
2018-09-08T10:02:32.247Z,995.12
2018-09-08T10:03:32.171Z,995.18
2018-09-08T10:04:32.099Z,995.15
2018-09-08T10:05:32.025Z,995.18
2018-09-08T10:06:31.981Z,995.18
2018-09-08T10:07:31.877Z,995.13
2018-09-08T10:08:31.803Z,995.12
2018-09-08T10:09:31.730Z,995.12
2018-09-08T10:10:31.658Z,995.14
2018-09-08T10:11:31.583Z,995.19
2018-09-08T10:12:31.509Z,995.17
2018-09-08T10:13:31.436Z,995.15
2018-09-08T10:14:31.366Z,995.14
2018-09-08T10:15:31.289Z,995.15
2018-09-08T10:16:31.215Z,995.11
2018-09-08T10:17:31.142Z,995.08
2018-09-08T10:18:31.068Z,995.06
2018-09-08T10:19:30.995Z,995.09
2018-09-08T10:20:30.921Z,995.05
2018-09-08T10:21:30.847Z,995.09
2018-09-08T10:22:30.776Z,994.96
2018-09-08T10:23:30.789Z,994.99
2018-09-08T10:24:30.627Z,995.04
2018-09-08T10:25:30.555Z,994.97
2018-09-08T10:26:30.577Z,994.96
2018-09-08T10:27:30.407Z,995.00
2018-09-08T10:28:30.346Z,994.99
2018-09-08T10:29:30.508Z,994.95
2018-09-08T10:30:30.256Z,994.94
2018-09-08T10:31:30.114Z,994.89
2018-09-08T10:32:30.041Z,994.91
2018-09-08T10:33:29.966Z,994.88
2018-09-08T10:34:29.893Z,994.84
2018-09-08T10:35:29.822Z,994.83
2018-09-08T10:36:29.746Z,994.83
2018-09-08T10:37:29.673Z,994.83
2018-09-08T10:38:29.600Z,994.87
2018-09-08T10:39:29.527Z,994.79
2018-09-08T10:40:29.455Z,994.90
2018-09-08T10:41:29.381Z,994.93
2018-09-08T10:42:29.309Z,994.91
2018-09-08T10:43:29.233Z,994.91
2018-09-08T10:44:29.161Z,994.87
2018-09-08T10:45:29.090Z,994.89
2018-09-08T10:46:29.014Z,994.89
2018-09-08T10:47:28.944Z,994.90
2018-09-08T10:48:28.870Z,994.95
2018-09-08T10:49:28.796Z,994.87
2018-09-08T10:50:28.724Z,994.87
2018-09-08T10:51:28.651Z,994.89
2018-09-08T10:52:28.577Z,994.85
2018-09-08T10:53:28.506Z,994.87
2018-09-08T10:54:28.432Z,994.87
2018-09-08T10:55:28.359Z,994.92
2018-09-08T10:56:28.286Z,994.97
2018-09-08T10:57:28.213Z,994.94
2018-09-08T10:58:28.143Z,994.95
2018-09-08T10:59:28.068Z,994.93
2018-09-08T11:00:27.997Z,995.00
2018-09-08T11:01:28.028Z,995.03
2018-09-08T11:02:28.041Z,995.10
2018-09-08T11:03:27.779Z,995.02
2018-09-08T11:04:27.707Z,995.04
2018-09-08T11:05:27.637Z,995.00
2018-09-08T11:06:27.563Z,994.99
2018-09-08T11:07:27.490Z,994.96
2018-09-08T11:08:27.418Z,994.98
2018-09-08T11:09:27.346Z,994.93
2018-09-08T11:10:27.275Z,994.94
2018-09-08T11:11:27.201Z,994.98
2018-09-08T11:12:27.129Z,995.03
2018-09-08T11:13:27.059Z,994.95
2018-09-08T11:14:26.988Z,994.96
2018-09-08T11:15:26.968Z,994.92
2018-09-08T11:16:26.842Z,994.96
2018-09-08T11:17:26.772Z,994.94
2018-09-08T11:18:26.698Z,994.96
2018-09-08T11:19:26.627Z,994.92
2018-09-08T11:20:26.554Z,994.90
2018-09-08T11:21:26.481Z,994.92
2018-09-08T11:22:26.410Z,994.94
2018-09-08T11:23:26.350Z,994.94
2018-09-08T11:24:26.266Z,994.95
2018-09-08T11:25:26.194Z,994.94
2018-09-08T11:26:26.124Z,994.91
2018-09-08T11:27:26.049Z,994.90
2018-09-08T11:28:25.978Z,994.84
2018-09-08T11:29:25.908Z,994.85
2018-09-08T11:30:25.877Z,994.88
2018-09-08T11:31:25.767Z,994.80
2018-09-08T11:32:25.695Z,994.81
2018-09-08T11:33:25.623Z,994.85
2018-09-08T11:34:25.550Z,994.85
2018-09-08T11:35:25.479Z,994.96
2018-09-08T11:36:25.408Z,994.93
2018-09-08T11:37:25.337Z,994.92
2018-09-08T11:38:25.393Z,994.88
2018-09-08T11:39:25.204Z,994.89
2018-09-08T11:40:25.129Z,994.91
2018-09-08T11:41:25.054Z,994.86
2018-09-08T11:42:24.985Z,994.97
2018-09-08T11:43:24.915Z,994.95
2018-09-08T11:44:24.847Z,995.09
2018-09-08T11:45:24.774Z,995.14
2018-09-08T11:46:24.710Z,995.19
2018-09-08T11:47:24.638Z,995.21
2018-09-08T11:48:24.567Z,995.22
2018-09-08T11:49:24.560Z,995.29
2018-09-08T11:50:24.430Z,995.27
2018-09-08T11:51:24.360Z,995.22
2018-09-08T11:52:24.291Z,995.18
2018-09-08T11:53:24.225Z,995.21
2018-09-08T11:54:24.157Z,995.19
2018-09-08T11:55:24.090Z,995.23
2018-09-08T11:56:24.022Z,995.26
2018-09-08T11:57:23.956Z,995.24
2018-09-08T11:58:23.891Z,995.25
2018-09-08T11:59:23.839Z,995.25
2018-09-08T12:00:23.760Z,995.32
2018-09-08T12:01:23.694Z,995.33
2018-09-08T12:02:23.633Z,995.38
2018-09-08T12:03:23.565Z,995.39
2018-09-08T12:04:23.501Z,995.40
2018-09-08T12:05:23.436Z,995.40
2018-09-08T12:06:23.389Z,995.41
2018-09-08T12:07:23.308Z,995.40
2018-09-08T12:08:23.247Z,995.39
2018-09-08T12:09:23.182Z,995.34
2018-09-08T12:10:23.123Z,995.33
2018-09-08T12:11:23.056Z,995.27
2018-09-08T12:12:22.994Z,995.21
2018-09-08T12:13:22.931Z,995.20
2018-09-08T12:14:22.868Z,995.21
2018-09-08T12:15:22.807Z,995.18
2018-09-08T12:16:22.743Z,995.19
2018-09-08T12:17:22.682Z,995.23
2018-09-08T12:18:22.620Z,995.32
2018-09-08T12:19:22.557Z,995.29
2018-09-08T12:20:22.496Z,995.31
2018-09-08T12:21:22.437Z,995.33
2018-09-08T12:22:22.434Z,995.34
2018-09-08T12:23:22.312Z,995.29
2018-09-08T12:24:22.251Z,995.37
2018-09-08T12:25:22.190Z,995.36
2018-09-08T12:26:22.129Z,995.38
2018-09-08T12:27:22.067Z,995.34